Time;durP1;ratioP1;P1;durP2;ratioP2;P2;SDS_P1;SDS_P2;PMS_P1;PMS_P2;Temp;Humidity;BMP_temperature;BMP_pressure;BME280_temperature;BME280_humidity;BME280_pressure;Samples;Min_cycle;Max_cycle;Signal;HPM_P1;HPM_P2
2022/05/21 00:01:22;;;;;;;4.70;2.60;;;;;;;12.38;100.00;101384.94;6202059;28;20521;-71
2022/05/21 00:04:24;;;;;;;5.03;2.70;;;;;;;12.34;100.00;101391.28;6202282;28;20058;-72
2022/05/21 00:07:25;;;;;;;4.72;2.35;;;;;;;12.41;100.00;101387.41;6202496;28;20078;-72
2022/05/21 00:10:29;;;;;;;2.05;1.67;;;;;;;12.36;100.00;101385.03;6202132;28;20053;-72
2022/05/21 00:13:32;;;;;;;2.85;1.63;;;;;;;12.29;100.00;101388.88;6201894;28;20058;-72
2022/05/21 00:16:34;;;;;;;4.00;2.33;;;;;;;12.28;100.00;101387.19;6201885;28;20434;-72
2022/05/21 00:19:35;;;;;;;3.28;1.90;;;;;;;12.28;100.00;101389.81;6201803;28;20057;-72
2022/05/21 00:22:36;;;;;;;4.43;2.38;;;;;;;12.26;100.00;101396.94;6202011;28;20498;-71
2022/05/21 00:25:38;;;;;;;3.28;1.60;;;;;;;12.26;100.00;101406.63;6201606;28;20058;-72
2022/05/21 00:28:43;;;;;;;1.80;1.38;;;;;;;12.20;100.00;101394.59;6185706;28;20055;-72
2022/05/21 00:31:44;;;;;;;2.20;1.27;;;;;;;12.16;100.00;101396.53;6178379;28;20046;-71
2022/05/21 00:34:46;;;;;;;4.78;1.65;;;;;;;12.16;100.00;101403.59;6178603;28;20054;-72
2022/05/21 00:37:47;;;;;;;2.83;1.25;;;;;;;12.04;100.00;101397.16;6177373;28;20051;-71
2022/05/21 00:40:49;;;;;;;2.55;1.92;;;;;;;12.04;100.00;101399.81;6177358;28;20055;-71
2022/05/21 00:43:53;;;;;;;2.88;1.48;;;;;;;12.00;100.00;101403.50;6177312;28;20062;-72
2022/05/21 00:46:54;;;;;;;1.33;1.00;;;;;;;12.06;100.00;101418.16;6177223;28;20051;-72
2022/05/21 00:49:56;;;;;;;2.08;1.50;;;;;;;12.04;100.00;101420.88;6177109;28;20062;-71
2022/05/21 00:52:59;;;;;;;2.80;1.77;;;;;;;12.04;100.00;101404.22;6176235;28;20055;-71
2022/05/21 00:56:00;;;;;;;2.45;1.67;;;;;;;11.98;100.00;101422.94;6176589;28;20050;-71
2022/05/21 01:02:27;;;;;;;2.28;1.10;;;;;;;11.90;100.00;101429.44;6176858;28;20055;-72
2022/05/21 01:05:29;;;;;;;1.70;1.30;;;;;;;11.89;100.00;101437.41;6176529;28;20042;-71
2022/05/21 01:08:30;;;;;;;2.92;1.50;;;;;;;11.80;100.00;101448.34;6176930;28;20051;-71
2022/05/21 01:11:32;;;;;;;1.17;0.93;;;;;;;11.76;100.00;101442.34;6176464;28;20051;-71
2022/05/21 01:14:36;;;;;;;1.33;1.05;;;;;;;11.88;100.00;101446.22;6176462;28;20051;-71
2022/05/21 01:17:38;;;;;;;2.22;0.95;;;;;;;11.85;100.00;101455.13;6176456;28;20058;-72
2022/05/21 01:20:43;;;;;;;3.20;0.90;;;;;;;11.81;100.00;101452.66;6176593;28;20054;-71
2022/05/21 01:23:45;;;;;;;2.38;0.98;;;;;;;11.90;100.00;101458.41;6176150;28;20054;-71
2022/05/21 01:26:47;;;;;;;4.43;1.50;;;;;;;11.85;100.00;101456.91;6176726;28;20046;-72
2022/05/21 01:29:53;;;;;;;3.88;1.20;;;;;;;11.75;100.00;101459.09;6177091;28;20054;-72
2022/05/21 01:32:55;;;;;;;3.17;1.30;;;;;;;11.74;100.00;101454.75;6176445;28;20058;-71
2022/05/21 01:35:58;;;;;;;1.92;1.30;;;;;;;11.67;100.00;101461.22;6176157;28;20144;-71
2022/05/21 01:39:00;;;;;;;1.90;1.30;;;;;;;11.72;100.00;101453.09;6175976;28;20053;-72
2022/05/21 01:42:02;;;;;;;2.70;1.35;;;;;;;11.58;100.00;101454.63;6175767;28;20410;-72
2022/05/21 01:45:04;;;;;;;2.20;1.65;;;;;;;11.63;100.00;101459.69;6175701;28;20054;-71
2022/05/21 01:48:06;;;;;;;3.60;1.63;;;;;;;11.57;100.00;101457.31;6176310;28;20093;-72
2022/05/21 01:51:09;;;;;;;1.65;1.40;;;;;;;11.59;100.00;101466.00;6175767;28;20459;-71
2022/05/21 01:54:11;;;;;;;4.88;1.95;;;;;;;11.55;100.00;101461.81;6175584;28;20050;-71
2022/05/21 01:57:13;;;;;;;2.33;1.30;;;;;;;11.52;100.00;101469.84;6175628;28;20051;-72
2022/05/21 02:00:15;;;;;;;2.45;1.58;;;;;;;11.58;100.00;101466.91;6176534;28;20043;-72
2022/05/21 02:03:17;;;;;;;3.20;1.83;;;;;;;11.59;100.00;101464.22;6175347;28;20051;-71
2022/05/21 02:06:18;;;;;;;4.45;1.67;;;;;;;11.59;100.00;101477.38;6175039;28;20055;-71
2022/05/21 02:09:21;;;;;;;3.70;1.90;;;;;;;11.63;100.00;101472.84;6175362;28;20047;-72
2022/05/21 02:12:24;;;;;;;2.55;1.75;;;;;;;11.65;100.00;101463.06;6175015;28;20419;-71
2022/05/21 02:15:25;;;;;;;2.33;1.63;;;;;;;11.63;100.00;101464.94;6175126;28;20066;-71
2022/05/21 02:18:27;;;;;;;4.68;1.75;;;;;;;11.62;100.00;101464.06;6175271;28;20065;-71
2022/05/21 02:21:29;;;;;;;3.42;2.33;;;;;;;11.65;100.00;101466.56;6174819;28;20050;-72
2022/05/21 02:24:31;;;;;;;2.20;1.70;;;;;;;11.67;100.00;101463.84;6174703;28;20050;-71
2022/05/21 02:27:33;;;;;;;3.88;2.40;;;;;;;11.58;100.00;101465.16;6176741;28;20431;-72
2022/05/21 02:30:34;;;;;;;3.47;2.13;;;;;;;11.55;100.00;101464.44;6173922;28;20062;-71
2022/05/21 02:33:35;;;;;;;5.50;1.95;;;;;;;11.52;100.00;101459.31;6156546;28;20054;-72
2022/05/21 02:39:57;;;;;;;3.85;1.95;;;;;;;11.44;100.00;101470.16;6174449;28;20051;-72
2022/05/21 02:42:58;;;;;;;3.83;2.20;;;;;;;11.42;100.00;101467.63;6174348;28;20055;-72
2022/05/21 02:46:00;;;;;;;2.92;1.80;;;;;;;11.42;100.00;101469.41;6174420;28;20047;-71
2022/05/21 02:49:01;;;;;;;3.63;2.22;;;;;;;11.41;100.00;101476.44;6174377;28;20054;-72
2022/05/21 02:52:02;;;;;;;4.85;2.85;;;;;;;11.43;100.00;101481.63;6174484;28;20061;-72
2022/05/21 02:55:08;;;;;;;4.82;2.63;;;;;;;11.49;100.00;101475.22;6174137;28;20051;-72
2022/05/21 02:58:09;;;;;;;4.13;2.72;;;;;;;11.51;100.00;101468.13;6174628;28;20125;-72
2022/05/21 03:01:10;;;;;;;6.25;3.28;;;;;;;11.52;100.00;101464.56;6173860;28;20051;-71
2022/05/21 03:04:12;;;;;;;9.40;2.90;;;;;;;11.47;100.00;101477.09;6173589;28;20525;-72
2022/05/21 03:07:13;;;;;;;8.18;3.58;;;;;;;11.45;100.00;101469.28;6172934;28;20047;-71
2022/05/21 03:10:23;;;;;;;5.38;3.15;;;;;;;11.38;100.00;101463.41;6172412;28;20061;-72
2022/05/21 03:13:26;;;;;;;4.45;2.70;;;;;;;11.38;100.00;101450.25;6172867;28;20054;-72
2022/05/21 03:16:27;;;;;;;6.32;3.70;;;;;;;11.43;100.00;101460.56;6171936;28;20193;-71
2022/05/21 03:19:30;;;;;;;5.65;3.53;;;;;;;11.41;100.00;101462.44;6172952;28;20054;-72
2022/05/21 03:22:31;;;;;;;5.65;3.28;;;;;;;11.40;100.00;101466.00;6172484;28;20051;-71
2022/05/21 03:25:34;;;;;;;5.63;2.97;;;;;;;11.35;100.00;101462.69;6172653;28;20046;-72
2022/05/21 03:28:35;;;;;;;4.07;3.13;;;;;;;11.32;100.00;101458.44;6180365;28;20490;-71
2022/05/21 03:31:37;;;;;;;5.50;3.65;;;;;;;11.33;100.00;101456.66;6175662;28;20058;-72
2022/05/21 03:34:38;;;;;;;6.47;3.47;;;;;;;11.32;100.00;101452.31;6173432;28;20091;-72
2022/05/21 03:37:40;;;;;;;7.63;3.78;;;;;;;11.30;100.00;101444.47;6173766;28;20505;-72
2022/05/21 03:40:42;;;;;;;6.80;3.28;;;;;;;11.31;100.00;101445.31;6173242;28;20043;-71
2022/05/21 03:43:44;;;;;;;8.07;3.53;;;;;;;11.31;100.00;101446.22;6173478;28;20054;-72
2022/05/21 03:46:45;;;;;;;4.72;2.88;;;;;;;11.35;100.00;101439.00;6173695;28;20055;-71
2022/05/21 03:49:46;;;;;;;4.72;3.22;;;;;;;11.37;100.00;101432.75;6173286;28;20407;-72
2022/05/21 03:52:48;;;;;;;6.13;3.63;;;;;;;11.43;100.00;101436.88;6173624;28;20054;-72
2022/05/21 03:55:52;;;;;;;6.18;3.97;;;;;;;11.45;100.00;101436.84;6173052;28;20422;-72
2022/05/21 03:58:53;;;;;;;8.27;3.65;;;;;;;11.49;100.00;101444.53;6181777;28;20065;-72
2022/05/21 04:01:55;;;;;;;5.53;3.67;;;;;;;11.51;100.00;101433.91;6197161;28;20046;-72
2022/05/21 04:04:56;;;;;;;7.47;4.32;;;;;;;11.53;100.00;101437.31;6197346;28;20050;-72
2022/05/21 04:07:57;;;;;;;6.85;3.75;;;;;;;11.57;100.00;101444.16;6197303;28;20494;-72
2022/05/21 04:11:01;;;;;;;7.38;4.20;;;;;;;11.60;100.00;101450.13;6197194;28;20046;-72
2022/05/21 04:14:02;;;;;;;7.18;3.47;;;;;;;11.58;100.00;101452.00;6192576;28;20047;-71
2022/05/21 04:17:09;;;;;;;5.32;3.72;;;;;;;11.58;100.00;101454.63;6169752;28;20077;-72
2022/05/21 04:20:13;;;;;;;7.72;4.45;;;;;;;11.59;100.00;101450.22;6173068;28;20133;-72
2022/05/21 04:23:14;;;;;;;6.00;3.28;;;;;;;11.61;100.00;101457.09;6173216;28;20050;-72
2022/05/21 04:26:17;;;;;;;6.90;4.75;;;;;;;11.66;100.00;101460.38;6173083;28;20051;-72
2022/05/21 04:29:19;;;;;;;11.25;4.78;;;;;;;11.66;100.00;101451.63;6176977;28;20430;-72
2022/05/21 04:32:20;;;;;;;8.27;4.20;;;;;;;11.66;100.00;101455.09;6177479;28;20058;-71
2022/05/21 04:35:22;;;;;;;12.98;4.53;;;;;;;11.68;100.00;101458.53;6177198;28;20050;-72
2022/05/21 04:38:23;;;;;;;8.90;5.07;;;;;;;11.72;100.00;101459.25;6177457;28;20154;-72
2022/05/21 04:41:27;;;;;;;11.13;4.53;;;;;;;11.76;100.00;101455.53;6176997;28;20376;-72
2022/05/21 04:44:31;;;;;;;7.55;5.18;;;;;;;11.75;100.00;101461.72;6177144;28;20538;-72
2022/05/21 04:47:32;;;;;;;10.32;5.70;;;;;;;11.78;100.00;101466.00;6177237;28;20109;-72
2022/05/21 04:50:35;;;;;;;12.18;5.75;;;;;;;11.77;100.00;101451.97;6177070;28;20516;-72
2022/05/21 04:53:37;;;;;;;6.50;4.97;;;;;;;11.81;100.00;101456.19;6176939;28;20066;-72
2022/05/21 04:56:40;;;;;;;8.65;5.13;;;;;;;11.84;100.00;101466.59;6177067;28;20058;-72
2022/05/21 04:59:41;;;;;;;10.35;5.15;;;;;;;11.85;100.00;101465.66;6194331;28;20513;-71
2022/05/21 05:02:43;;;;;;;9.38;5.72;;;;;;;11.86;100.00;101463.91;6200946;28;20061;-71
2022/05/21 05:05:46;;;;;;;15.15;6.82;;;;;;;11.90;100.00;101461.06;6200781;28;20050;-73
2022/05/21 05:08:47;;;;;;;10.32;6.57;;;;;;;11.93;100.00;101463.50;6200832;28;20517;-71
2022/05/21 05:11:51;;;;;;;9.93;6.28;;;;;;;11.95;100.00;101463.47;6200699;28;20050;-72
2022/05/21 05:14:53;;;;;;;14.75;7.68;;;;;;;12.01;100.00;101463.16;6200323;28;20465;-72
2022/05/21 05:17:59;;;;;;;13.20;7.00;;;;;;;11.97;100.00;101464.22;6200756;28;20054;-72
2022/05/21 05:21:01;;;;;;;11.05;6.70;;;;;;;12.01;100.00;101457.91;6200352;28;20042;-72
2022/05/21 05:24:03;;;;;;;13.65;7.00;;;;;;;12.07;100.00;101452.31;6200474;28;20046;-71
2022/05/21 05:27:07;;;;;;;12.85;7.45;;;;;;;12.06;100.00;101453.25;6200330;28;20429;-72
2022/05/21 05:30:10;;;;;;;11.05;6.40;;;;;;;12.11;100.00;101458.31;6198647;28;20049;-72
2022/05/21 05:33:11;;;;;;;12.27;7.10;;;;;;;12.19;100.00;101454.38;6200153;28;20050;-71
2022/05/21 05:36:13;;;;;;;14.82;7.75;;;;;;;12.17;100.00;101456.25;6200238;28;20050;-72
2022/05/21 05:39:15;;;;;;;12.98;7.70;;;;;;;12.20;100.00;101460.50;6192855;28;20067;-71
2022/05/21 05:42:17;;;;;;;12.43;7.03;;;;;;;12.23;100.00;101462.13;6186928;28;20042;-72
2022/05/21 05:45:19;;;;;;;13.75;7.05;;;;;;;12.18;100.00;101460.56;6178636;28;20510;-72
2022/05/21 05:48:21;;;;;;;14.48;7.43;;;;;;;12.29;100.00;101456.56;6177181;28;20506;-71
2022/05/21 05:51:22;;;;;;;13.05;7.78;;;;;;;12.29;100.00;101456.56;6184838;28;20491;-72
2022/05/21 05:54:23;;;;;;;14.13;7.45;;;;;;;12.34;100.00;101450.13;6191345;28;20046;-72
2022/05/21 05:57:26;;;;;;;13.77;7.28;;;;;;;12.42;100.00;101452.38;6200022;28;20053;-69
2022/05/21 06:00:29;;;;;;;12.77;6.63;;;;;;;12.46;100.00;101455.72;6197510;28;20181;-72
2022/05/21 06:03:31;;;;;;;15.48;8.20;;;;;;;12.44;100.00;101451.41;6182392;28;20134;-72
2022/05/21 06:06:32;;;;;;;15.48;8.15;;;;;;;12.49;100.00;101468.75;6174628;28;20062;-72
2022/05/21 06:09:34;;;;;;;12.88;7.57;;;;;;;12.44;100.00;101464.56;6179468;28;20050;-72
2022/05/21 06:12:37;;;;;;;15.77;7.68;;;;;;;12.47;100.00;101458.28;6190526;28;20069;-73
2022/05/21 06:15:40;;;;;;;13.02;8.07;;;;;;;12.49;100.00;101458.19;6192304;28;20530;-73
2022/05/21 06:18:42;;;;;;;15.93;7.22;;;;;;;12.53;100.00;101459.75;6182910;28;20442;-72
2022/05/21 06:21:43;;;;;;;14.30;7.70;;;;;;;12.57;100.00;101442.84;6185908;28;20057;-73
2022/05/21 06:24:44;;;;;;;13.13;7.32;;;;;;;12.65;100.00;101452.06;6184548;28;20050;-72
2022/05/21 06:27:48;;;;;;;16.98;7.57;;;;;;;12.75;100.00;101457.72;6190858;28;20054;-73
2022/05/21 06:30:50;;;;;;;12.23;7.85;;;;;;;12.92;100.00;101488.53;6198506;28;20050;-73
2022/05/21 06:33:51;;;;;;;20.42;6.85;;;;;;;13.02;100.00;101466.00;6189170;28;20066;-72
2022/05/21 06:36:52;;;;;;;12.40;6.53;;;;;;;12.97;100.00;101473.31;6182715;28;20054;-73
2022/05/21 06:39:54;;;;;;;16.88;6.90;;;;;;;12.99;100.00;101466.19;6174579;28;20057;-72
2022/05/21 06:43:00;;;;;;;19.65;7.38;;;;;;;13.03;100.00;101467.72;6174607;28;20057;-72
2022/05/21 06:46:02;;;;;;;15.55;7.32;;;;;;;13.05;100.00;101462.38;6178810;28;20402;-72
2022/05/21 06:49:03;;;;;;;15.40;6.20;;;;;;;13.18;100.00;101469.56;6190664;28;20054;-72
2022/05/21 06:52:05;;;;;;;8.98;5.95;;;;;;;13.24;100.00;101471.06;6198324;28;20525;-73
2022/05/21 06:55:08;;;;;;;13.52;6.63;;;;;;;13.33;100.00;101470.56;6198224;28;20050;-72
2022/05/21 06:58:11;;;;;;;11.60;6.03;;;;;;;13.36;100.00;101469.56;6197027;28;20054;-72
2022/05/21 07:01:12;;;;;;;12.10;6.40;;;;;;;13.47;100.00;101461.06;6197724;28;20046;-73
2022/05/21 07:04:14;;;;;;;13.10;5.55;;;;;;;13.47;100.00;101459.28;6198152;28;20051;-72
2022/05/21 07:07:34;;;;;;;9.52;5.55;;;;;;;13.47;100.00;101466.34;6198216;28;20129;-73
2022/05/21 07:10:36;;;;;;;10.25;5.90;;;;;;;13.43;100.00;101473.56;6198010;28;20133;-73
2022/05/21 07:13:39;;;;;;;12.45;6.25;;;;;;;13.42;100.00;101463.94;6185302;28;20058;-72
2022/05/21 07:16:41;;;;;;;13.60;6.13;;;;;;;13.48;100.00;101460.97;6181499;28;20414;-72
2022/05/21 07:19:42;;;;;;;10.82;4.93;;;;;;;13.57;100.00;101459.63;6180802;28;20065;-73
2022/05/21 07:22:45;;;;;;;12.10;5.60;;;;;;;13.59;100.00;101460.41;6190268;28;20617;-72
2022/05/21 07:25:47;;;;;;;15.80;5.50;;;;;;;13.70;100.00;101468.59;6197660;28;20104;-73
2022/05/21 07:28:50;;;;;;;8.07;4.78;;;;;;;13.83;100.00;101477.53;6186330;28;20061;-72
2022/05/21 07:31:51;;;;;;;11.52;4.72;;;;;;;13.82;100.00;101465.28;6170148;28;20123;-73
2022/05/21 07:34:56;;;;;;;15.02;5.05;;;;;;;13.83;100.00;101479.34;6168235;28;20057;-73
2022/05/21 07:37:58;;;;;;;10.00;4.63;;;;;;;13.79;100.00;101472.50;6173789;28;20051;-73
2022/05/21 07:40:59;;;;;;;6.95;4.15;;;;;;;13.81;100.00;101481.22;6174186;28;20081;-73
2022/05/21 07:44:02;;;;;;;15.80;4.30;;;;;;;13.83;100.00;101485.47;6172674;28;20043;-73
2022/05/21 07:47:04;;;;;;;8.52;4.40;;;;;;;13.89;100.00;101482.47;6179904;28;20062;-72
2022/05/21 07:50:07;;;;;;;9.57;4.03;;;;;;;13.83;100.00;101482.81;6192596;28;20058;-73
2022/05/21 07:53:12;;;;;;;7.63;3.85;;;;;;;13.84;100.00;101483.66;6197411;28;20042;-72
2022/05/21 07:56:13;;;;;;;7.85;4.70;;;;;;;13.86;100.00;101472.09;6184842;28;20057;-72
2022/05/21 07:59:16;;;;;;;7.43;4.18;;;;;;;13.92;100.00;101471.75;6187544;28;20057;-72
2022/05/21 08:02:19;;;;;;;6.80;3.35;;;;;;;13.94;100.00;101484.84;6194280;28;20521;-72
2022/05/21 08:05:21;;;;;;;8.40;3.78;;;;;;;14.04;100.00;101487.88;6188228;28;20051;-72
2022/05/21 08:08:22;;;;;;;7.22;3.53;;;;;;;14.17;100.00;101483.56;6174019;28;20521;-73
2022/05/21 08:11:24;;;;;;;6.93;3.22;;;;;;;14.24;100.00;101484.94;6188700;28;20050;-72
2022/05/21 08:14:27;;;;;;;4.80;2.92;;;;;;;14.30;100.00;101487.22;6200357;28;20050;-73
2022/05/21 08:17:28;;;;;;;3.50;2.55;;;;;;;14.38;100.00;101486.78;6199058;28;20140;-73
2022/05/21 08:20:30;;;;;;;6.82;2.55;;;;;;;14.44;100.00;101482.03;6178700;28;20057;-72
2022/05/21 08:27:01;;;;;;;3.67;1.92;;;;;;;14.77;100.00;101491.59;6198455;28;20421;-73
2022/05/21 08:30:06;;;;;;;6.13;2.85;;;;;;;14.93;100.00;101494.19;6195234;28;20549;-75
2022/05/21 08:33:08;;;;;;;5.93;3.30;;;;;;;14.80;100.00;101495.84;6198007;28;20058;-74
2022/05/21 08:36:09;;;;;;;5.60;2.05;;;;;;;14.74;100.00;101493.56;6198920;28;20053;-72
2022/05/21 08:39:11;;;;;;;6.55;2.67;;;;;;;14.64;100.00;101502.03;6201245;28;20063;-73
2022/05/21 08:42:20;;;;;;;6.13;2.33;;;;;;;14.66;100.00;101492.22;6201529;28;20453;-73
2022/05/21 08:45:25;;;;;;;6.93;2.13;;;;;;;14.86;100.00;101492.84;6201214;28;20445;-72
2022/05/21 08:48:31;;;;;;;4.85;1.65;;;;;;;15.01;100.00;101505.16;6199837;28;20050;-73
2022/05/21 08:51:37;;;;;;;4.85;1.83;;;;;;;15.10;100.00;101496.66;6201151;28;20082;-74
2022/05/21 08:54:43;;;;;;;6.25;1.90;;;;;;;15.20;100.00;101487.22;6201226;28;20050;-73
2022/05/21 08:57:47;;;;;;;4.03;1.45;;;;;;;15.35;100.00;101498.69;6201064;28;20409;-73
2022/05/21 09:00:50;;;;;;;4.30;2.22;;;;;;;15.39;100.00;101492.25;6201012;28;20055;-72
2022/05/21 09:03:54;;;;;;;7.55;2.22;;;;;;;15.30;100.00;101502.53;6200837;28;20058;-72
2022/05/21 09:06:59;;;;;;;1.17;1.05;;;;;;;15.18;100.00;101505.00;6201082;28;20056;-73
2022/05/21 09:10:13;;;;;;;3.63;1.50;;;;;;;15.12;100.00;101508.00;6200831;28;20050;-72
2022/05/21 09:13:20;;;;;;;2.08;0.98;;;;;;;15.02;100.00;101513.97;6200827;28;20053;-72
2022/05/21 09:19:46;;;;;;;3.30;1.45;;;;;;;15.11;100.00;101508.97;6200293;28;20454;-73
2022/05/21 09:22:58;;;;;;;4.40;1.23;;;;;;;15.16;100.00;101511.31;6200383;28;20046;-72
2022/05/21 09:26:07;;;;;;;4.78;1.58;;;;;;;15.17;100.00;101497.13;6200465;28;20047;-73
2022/05/21 09:29:13;;;;;;;;;;;;;;;15.15;100.00;101501.69;6200818;28;20061;-73
2022/05/21 09:32:22;;;;;;;2.13;1.20;;;;;;;15.13;100.00;101512.38;6200313;28;19945;-73
2022/05/21 09:35:25;;;;;;;1.67;1.27;;;;;;;15.26;100.00;101515.16;6200090;28;20046;-73
2022/05/21 09:38:30;;;;;;;3.50;1.00;;;;;;;15.25;100.00;101509.94;6200428;28;20050;-73
2022/05/21 09:41:32;;;;;;;2.20;0.70;;;;;;;15.23;100.00;101518.81;6199878;28;20513;-73
2022/05/21 09:48:14;;;;;;;3.90;1.33;;;;;;;15.17;100.00;101523.63;6184848;28;20050;-73
2022/05/21 09:51:30;;;;;;;3.90;1.23;;;;;;;15.28;100.00;101550.31;6175856;28;20055;-73
2022/05/21 09:54:36;;;;;;;3.63;0.90;;;;;;;15.36;97.90;101536.63;6175854;28;20061;-73
2022/05/21 09:57:42;;;;;;;4.10;2.10;;;;;;;15.43;96.39;101537.94;6175638;28;20066;-73
2022/05/21 10:00:54;;;;;;;2.67;0.90;;;;;;;15.48;98.02;101534.06;6175864;28;20047;-72
2022/05/21 10:03:57;;;;;;;2.95;0.88;;;;;;;15.40;97.49;101552.22;6175370;28;20058;-72
2022/05/21 10:07:04;;;;;;;2.25;0.75;;;;;;;15.32;96.92;101545.69;6175648;28;20058;-72
2022/05/21 10:13:40;;;;;;;5.60;1.20;;;;;;;15.77;94.26;101555.31;6175299;28;20074;-72
2022/05/21 10:16:46;;;;;;;3.88;1.13;;;;;;;16.14;91.30;101537.06;6183686;28;20057;-73
2022/05/21 10:20:01;;;;;;;1.60;0.60;;;;;;;16.06;91.99;101553.47;6199273;28;20410;-72
2022/05/21 10:23:09;;;;;;;0.70;0.70;;;;;;;15.70;100.00;101586.63;6199298;28;20142;-72
2022/05/21 10:26:36;;;;;;;6.00;1.50;;;;;;;14.52;100.00;101584.75;6198991;28;20061;-72
2022/05/21 10:30:06;;;;;;;2.97;0.90;;;;;;;13.82;100.00;101557.75;6196550;28;20058;-71
2022/05/21 10:33:16;;;;;;;3.92;1.10;;;;;;;13.45;100.00;101570.25;6190383;28;20049;-71
2022/05/21 10:36:28;;;;;;;8.98;1.27;;;;;;;13.43;100.00;101574.75;6199008;28;20046;-71
2022/05/21 10:39:45;;;;;;;6.63;1.13;;;;;;;13.58;100.00;101572.25;6199083;28;20050;-71
2022/05/21 10:43:06;;;;;;;0.60;0.60;;;;;;;13.76;100.00;101563.34;6198803;28;20053;-71
2022/05/21 10:46:15;;;;;;;4.03;1.50;;;;;;;13.93;100.00;101560.66;6196881;28;20125;-72
2022/05/21 10:49:44;;;;;;;4.95;1.10;;;;;;;14.26;100.00;101557.09;6198879;28;20054;-72
2022/05/21 10:53:03;;;;;;;8.00;2.08;;;;;;;14.55;100.00;101559.94;6198552;28;20077;-71
2022/05/21 10:56:17;;;;;;;4.38;1.30;;;;;;;14.85;100.00;101563.47;6198424;28;20510;-71
2022/05/21 10:59:33;;;;;;;1.63;0.63;;;;;;;14.96;100.00;101565.47;6198702;28;20513;-71
2022/05/21 11:03:04;;;;;;;1.83;1.00;;;;;;;15.04;100.00;101584.41;6197924;28;20450;-72
2022/05/21 11:06:23;;;;;;;1.95;1.20;;;;;;;14.66;100.00;101581.31;6198318;28;20054;-72
2022/05/21 11:09:33;;;;;;;1.55;0.82;;;;;;;14.40;100.00;101580.13;6198233;28;20517;-71
2022/05/21 11:12:44;;;;;;;4.53;1.13;;;;;;;14.13;100.00;101585.16;6197846;28;20054;-71
2022/05/21 11:15:50;;;;;;;4.45;1.20;;;;;;;14.07;100.00;101580.19;6194607;28;20136;-71
2022/05/21 11:18:56;;;;;;;2.38;0.90;;;;;;;14.73;100.00;101573.91;6173863;28;20466;-71
2022/05/21 11:22:03;;;;;;;1.50;0.80;;;;;;;15.26;100.00;101572.53;6173844;28;20050;-72
2022/05/21 11:25:14;;;;;;;2.28;0.98;;;;;;;15.73;100.00;101565.25;6173727;28;20054;-72
2022/05/21 11:28:32;;;;;;;2.40;0.95;;;;;;;16.27;100.00;101561.00;6174323;28;20057;-73
2022/05/21 11:38:35;;;;;;;2.97;0.70;;;;;;;17.41;100.00;101571.97;6173100;28;20050;-73
2022/05/21 11:41:59;;;;;;;1.52;0.80;;;;;;;17.55;93.23;101572.81;6173594;28;20043;-72
2022/05/21 11:45:14;;;;;;;1.40;0.70;;;;;;;17.86;99.43;101564.44;6173623;28;20061;-72
2022/05/21 11:48:19;;;;;;;1.55;0.52;;;;;;;18.10;91.25;101561.81;6174606;28;20051;-73
2022/05/21 11:51:26;;;;;;;4.22;0.90;;;;;;;17.72;91.80;101580.47;6173674;28;20065;-72
2022/05/21 11:55:01;;;;;;;2.65;0.75;;;;;;;17.85;84.71;101565.41;6173407;28;20051;-71
2022/05/21 11:58:05;;;;;;;0.65;0.55;;;;;;;18.32;82.84;101594.88;6173680;28;20104;-72
2022/05/21 12:01:06;;;;;;;4.45;1.05;;;;;;;18.50;77.09;101581.06;6173329;28;20051;-73
2022/05/21 12:04:22;;;;;;;0.90;0.40;;;;;;;18.78;74.60;101588.84;6173350;28;20051;-73
2022/05/21 12:07:55;;;;;;;1.13;0.50;;;;;;;19.22;80.30;101578.38;6173472;28;20061;-73
2022/05/21 12:11:02;;;;;;;1.02;0.43;;;;;;;19.23;75.39;101571.22;6173204;28;20082;-73
2022/05/21 12:14:13;;;;;;;3.20;0.60;;;;;;;19.16;72.13;101588.63;6173071;28;20083;-73
2022/05/21 12:17:37;;;;;;;2.05;0.77;;;;;;;18.40;72.57;101577.38;6174453;28;20494;-73
2022/05/21 12:20:44;;;;;;;0.98;0.43;;;;;;;17.84;76.33;101584.94;6173322;28;20074;-73
2022/05/21 12:24:05;;;;;;;0.75;0.50;;;;;;;17.51;77.19;101582.81;6173283;28;20050;-73
2022/05/21 12:27:21;;;;;;;3.30;0.60;;;;;;;17.24;81.92;101598.84;6173351;28;20055;-72
2022/05/21 12:30:29;;;;;;;0.50;0.47;;;;;;;16.77;87.60;101594.91;6172955;28;20051;-72
2022/05/21 12:33:39;;;;;;;5.93;0.70;;;;;;;16.74;88.98;101581.81;6173533;28;20061;-72
2022/05/21 12:36:44;;;;;;;;;;;;;;;16.92;90.49;101583.25;6173293;28;20050;-72
2022/05/21 12:40:04;;;;;;;2.00;0.82;;;;;;;16.86;80.57;101573.06;6173075;28;19922;-73
2022/05/21 12:43:10;;;;;;;4.57;1.05;;;;;;;17.94;84.42;101570.06;6172763;28;20054;-73
2022/05/21 12:46:22;;;;;;;4.82;0.50;;;;;;;18.34;72.01;101583.13;6173890;28;20419;-73
2022/05/21 12:49:23;;;;;;;1.63;0.77;;;;;;;18.84;75.43;101591.91;6174469;28;20498;-72
2022/05/21 12:52:30;;;;;;;3.75;0.77;;;;;;;19.50;67.23;101594.91;6177239;28;20058;-72
2022/05/21 12:55:33;;;;;;;3.10;0.63;;;;;;;19.35;61.52;101591.59;6176971;28;20075;-72
2022/05/21 12:58:34;;;;;;;2.08;0.50;;;;;;;18.71;63.62;101604.44;6177368;28;20112;-72
2022/05/21 13:01:43;;;;;;;2.25;0.38;;;;;;;18.21;64.31;101606.28;6176807;28;20058;-72
2022/05/21 13:04:48;;;;;;;0.85;0.50;;;;;;;17.93;67.93;101602.06;6176693;28;20050;-72
2022/05/21 13:07:51;;;;;;;2.38;0.95;;;;;;;17.78;71.49;101608.47;6176818;28;20518;-72
2022/05/21 13:10:59;;;;;;;0.55;0.50;;;;;;;17.81;66.02;101606.47;6176864;28;20523;-73
2022/05/21 13:14:07;;;;;;;1.60;0.52;;;;;;;17.59;68.41;101598.25;6176367;28;20186;-72
2022/05/21 13:17:21;;;;;;;1.05;0.40;;;;;;;17.47;72.38;101600.78;6178110;28;20055;-72
2022/05/21 13:20:29;;;;;;;0.43;0.40;;;;;;;17.34;72.55;101599.06;6176365;28;20051;-72
2022/05/21 13:23:51;;;;;;;1.00;0.55;;;;;;;17.60;71.45;101610.56;6176619;28;20046;-71
2022/05/21 13:27:07;;;;;;;2.78;0.60;;;;;;;17.57;73.20;101610.78;6176333;28;20054;-72
2022/05/21 13:30:12;;;;;;;1.02;0.55;;;;;;;17.64;74.11;101604.94;6176284;28;20058;-72
2022/05/21 13:33:32;;;;;;;2.60;0.50;;;;;;;17.96;71.55;101602.72;6176932;28;20053;-72
2022/05/21 13:36:34;;;;;;;1.60;0.70;;;;;;;18.15;69.09;101591.59;6176121;28;20054;-72
2022/05/21 13:39:37;;;;;;;0.65;0.40;;;;;;;17.96;67.18;101607.19;6176340;28;20047;-72
2022/05/21 13:42:42;;;;;;;0.82;0.40;;;;;;;17.64;67.94;101606.75;6175780;28;20054;-72
2022/05/21 13:45:52;;;;;;;4.05;0.70;;;;;;;17.36;69.94;101608.66;6176868;28;20426;-72
2022/05/21 13:48:58;;;;;;;1.55;0.90;;;;;;;17.31;70.27;101612.56;6175964;28;20051;-72
2022/05/21 13:52:00;;;;;;;0.32;0.32;;;;;;;17.29;68.81;101617.97;6176063;28;20533;-72
2022/05/21 13:55:05;;;;;;;1.15;0.43;;;;;;;17.36;72.73;101615.75;6175684;28;20055;-72
2022/05/21 13:58:14;;;;;;;1.23;0.70;;;;;;;18.34;70.48;101622.22;6175831;28;20062;-72
2022/05/21 14:01:21;;;;;;;;;;;;;;;18.54;67.12;101616.31;6175635;28;20050;-73
2022/05/21 14:04:34;;;;;;;1.50;0.50;;;;;;;18.13;67.91;101624.63;6175539;28;19922;-71
2022/05/21 14:07:35;;;;;;;3.70;0.63;;;;;;;17.77;71.00;101633.38;6175607;28;20077;-72
2022/05/21 14:10:43;;;;;;;0.63;0.45;;;;;;;17.56;70.78;101638.31;6175466;28;20639;-72
2022/05/21 14:13:47;;;;;;;1.42;0.40;;;;;;;17.54;67.94;101641.09;6175212;28;20494;-71
2022/05/21 14:16:52;;;;;;;2.83;0.38;;;;;;;17.47;68.79;101634.47;6189449;28;20054;-72
2022/05/21 14:20:12;;;;;;;0.57;0.30;;;;;;;17.52;67.45;101631.50;6199322;28;20050;-72
2022/05/21 14:23:27;;;;;;;4.10;0.52;;;;;;;17.48;67.78;101629.03;6199137;28;20666;-72
2022/05/21 14:26:32;;;;;;;1.00;0.30;;;;;;;17.38;65.65;101633.28;6199230;28;20418;-71
2022/05/21 14:29:39;;;;;;;0.45;0.45;;;;;;;17.38;66.06;101621.81;6199677;28;20506;-72
2022/05/21 14:32:42;;;;;;;3.92;0.40;;;;;;;17.27;66.54;101619.03;6199030;28;20050;-72
2022/05/21 14:35:46;;;;;;;1.10;0.77;;;;;;;17.22;68.92;101614.03;6198777;28;20053;-72
2022/05/21 14:38:48;;;;;;;2.47;0.50;;;;;;;17.17;69.19;101617.00;6198811;28;20061;-71
2022/05/21 14:41:51;;;;;;;2.58;0.50;;;;;;;17.07;71.49;101623.88;6198534;28;20050;-72